Terminal Aerodrome Forecast
Issued by NWS

Home | Current Version | Previous Version | Text Only | Print | Product List | Glossary On
Versions: 1 2 3 4 5 6 7 8 9 10 11 12 13 14 15 16 17
000
FTUS45 KREV 221736
TAFRNO
TAF
KRNO 221736Z 2218/2318 29006KT P6SM SCT060 SCT100
     FM221900 16007KT P6SM VCSH BKN060 BKN110
     FM230500 31008KT P6SM SCT100 BKN200
     FM230900 VRB04KT P6SM SCT090 BKN200=

USA.gov is the U.S. government's official web portal to all federal, state and local government web resources and services.